createdAt,value
2022-10-28T00:02:25.879Z,98.94
2022-10-28T00:08:05.802Z,99.80
2022-10-28T00:13:45.850Z,99.99
2022-10-28T00:19:27.782Z,99.71
2022-10-28T00:25:07.822Z,99.96
2022-10-28T00:30:47.831Z,100.00
2022-10-28T00:36:29.870Z,100.00
2022-10-28T00:42:11.812Z,100.00
2022-10-28T00:48:04.837Z,100.00
2022-10-28T00:53:45.770Z,100.00
2022-10-28T00:59:31.831Z,100.00
2022-10-28T01:05:11.797Z,100.00
2022-10-28T01:11:22.838Z,100.00
2022-10-28T01:17:13.893Z,100.00
2022-10-28T01:23:00.829Z,100.00
2022-10-28T01:29:35.003Z,100.00
2022-10-28T01:35:26.869Z,100.00
2022-10-28T01:41:12.981Z,100.00
2022-10-28T01:46:58.839Z,100.00
2022-10-28T01:52:42.890Z,100.00
2022-10-28T01:58:26.965Z,100.00
2022-10-28T02:04:07.824Z,100.00
2022-10-28T02:10:04.824Z,100.00
2022-10-28T02:15:56.857Z,100.00
2022-10-28T02:21:47.886Z,100.00
2022-10-28T02:27:35.949Z,100.00
2022-10-28T02:33:18.862Z,100.00
2022-10-28T02:39:02.921Z,100.00
2022-10-28T02:44:47.844Z,100.00
2022-10-28T02:50:31.877Z,100.00
2022-10-28T02:56:14.853Z,100.00
2022-10-28T03:01:55.066Z,100.00
2022-10-28T03:07:41.887Z,100.00
2022-10-28T03:13:21.906Z,100.00
2022-10-28T03:19:01.935Z,100.00
2022-10-28T03:24:41.910Z,100.00
2022-10-28T03:30:24.887Z,100.00
2022-10-28T03:36:04.989Z,100.00
2022-10-28T03:41:44.883Z,100.00
2022-10-28T03:47:24.891Z,100.00
2022-10-28T03:53:04.977Z,100.00
2022-10-28T03:58:45.099Z,100.00
2022-10-28T04:04:28.407Z,100.00
2022-10-28T04:10:11.022Z,100.00
2022-10-28T04:15:50.919Z,100.00
2022-10-28T04:21:30.904Z,100.00
2022-10-28T04:27:10.885Z,100.00
2022-10-28T04:32:51.954Z,100.00
2022-10-28T04:38:31.948Z,100.00
2022-10-28T04:44:11.988Z,100.00
2022-10-28T04:49:52.044Z,100.00
2022-10-28T04:55:32.033Z,100.00
2022-10-28T05:01:12.257Z,100.00
2022-10-28T05:06:51.979Z,100.00
2022-10-28T05:12:31.970Z,100.00
2022-10-28T05:18:11.970Z,100.00
2022-10-28T05:23:51.948Z,100.00
2022-10-28T05:29:33.514Z,100.00
2022-10-28T05:35:12.994Z,100.00
2022-10-28T05:40:53.045Z,100.00
2022-10-28T05:46:32.977Z,100.00
2022-10-28T05:52:13.216Z,100.00
2022-10-28T05:57:53.406Z,100.00
2022-10-28T06:03:33.138Z,100.00
2022-10-28T06:09:19.998Z,100.00
2022-10-28T06:14:58.574Z,100.00
2022-10-28T06:20:38.537Z,100.00
2022-10-28T06:26:18.431Z,100.00
2022-10-28T06:31:58.506Z,100.00
2022-10-28T06:37:38.515Z,100.00
2022-10-28T06:43:20.508Z,100.00
2022-10-28T06:49:02.094Z,100.00
2022-10-28T06:54:42.081Z,100.00
2022-10-28T07:00:24.070Z,100.00
2022-10-28T07:06:05.120Z,100.00
2022-10-28T07:11:45.048Z,100.00
2022-10-28T07:17:25.123Z,100.00
2022-10-28T07:23:13.125Z,100.00
2022-10-28T07:28:53.248Z,100.00
2022-10-28T07:34:33.129Z,100.00
2022-10-28T07:40:13.074Z,100.00
2022-10-28T07:45:53.185Z,100.00
2022-10-28T07:51:33.126Z,100.00
2022-10-28T07:57:13.063Z,100.00
2022-10-28T08:02:53.089Z,99.15
2022-10-28T08:08:33.120Z,96.12
2022-10-28T08:14:13.182Z,93.94
2022-10-28T08:19:56.088Z,92.83
2022-10-28T08:25:36.157Z,92.16
2022-10-28T08:31:20.136Z,88.89
2022-10-28T08:37:00.210Z,87.84
2022-10-28T08:42:55.479Z,88.44
2022-10-28T08:48:43.056Z,89.16
2022-10-28T08:54:32.140Z,88.58
2022-10-28T09:00:13.101Z,88.27
2022-10-28T09:05:56.090Z,85.77
2022-10-28T09:11:59.100Z,80.82
2022-10-28T09:17:48.096Z,75.51
2022-10-28T09:23:35.131Z,71.93
2022-10-28T09:29:33.117Z,68.32
2022-10-28T09:35:17.110Z,66.99
2022-10-28T09:41:03.138Z,66.19
2022-10-28T09:46:43.149Z,64.63
2022-10-28T09:52:31.148Z,62.92
2022-10-28T09:58:11.194Z,63.26
2022-10-28T10:03:52.191Z,63.38
2022-10-28T10:09:37.380Z,64.05
2022-10-28T10:15:22.152Z,64.12
2022-10-28T10:21:07.210Z,62.96
2022-10-28T10:26:48.313Z,62.26
2022-10-28T10:32:36.207Z,62.48
2022-10-28T10:38:19.256Z,63.28
2022-10-28T10:43:59.189Z,64.89
2022-10-28T10:49:39.269Z,65.11
2022-10-28T10:55:32.157Z,64.70
2022-10-28T11:01:14.281Z,64.55
2022-10-28T11:06:57.188Z,64.90
2022-10-28T11:12:43.230Z,65.89
2022-10-28T11:18:36.154Z,66.32
2022-10-28T11:24:30.192Z,65.83
2022-10-28T11:30:12.191Z,66.28
2022-10-28T11:36:09.191Z,66.58
2022-10-28T11:42:04.272Z,65.98
2022-10-28T11:48:08.248Z,66.23
2022-10-28T11:54:18.389Z,65.85
2022-10-28T12:00:34.262Z,66.39
2022-10-28T12:06:23.277Z,67.69
2022-10-28T12:12:19.326Z,67.79
2022-10-28T12:18:14.230Z,67.06
2022-10-28T12:23:56.280Z,68.24
2022-10-28T12:29:40.213Z,68.01
2022-10-28T12:35:30.293Z,68.37
2022-10-28T12:41:17.208Z,67.59
2022-10-28T12:47:06.280Z,67.83
2022-10-28T12:52:55.310Z,67.94
2022-10-28T12:58:40.230Z,67.84
2022-10-28T13:04:20.233Z,67.87
2022-10-28T13:10:09.405Z,68.07
2022-10-28T13:16:11.261Z,68.04
2022-10-28T13:22:11.261Z,67.83
2022-10-28T13:27:51.481Z,66.99
2022-10-28T13:33:35.302Z,67.14
2022-10-28T13:39:17.251Z,68.07
2022-10-28T13:45:04.246Z,68.89
2022-10-28T13:50:51.335Z,70.20
2022-10-28T13:56:57.314Z,71.83
2022-10-28T14:02:48.369Z,72.62
2022-10-28T14:08:36.265Z,73.85
2022-10-28T14:14:17.248Z,75.38
2022-10-28T14:20:04.301Z,77.51
2022-10-28T14:26:17.333Z,79.41
2022-10-28T14:31:58.312Z,80.78
2022-10-28T14:38:20.332Z,82.22
2022-10-28T14:44:10.394Z,84.16
2022-10-28T14:49:52.304Z,85.63
2022-10-28T14:55:41.287Z,86.72
2022-10-28T15:01:41.505Z,87.16
2022-10-28T15:07:26.451Z,87.59
2022-10-28T15:13:10.279Z,88.69
2022-10-28T15:19:02.326Z,89.87
2022-10-28T15:24:44.765Z,90.75
2022-10-28T15:30:33.369Z,91.68
2022-10-28T15:36:27.344Z,92.23
2022-10-28T15:42:09.347Z,92.50
2022-10-28T15:47:51.494Z,92.32
2022-10-28T15:53:51.341Z,92.54
2022-10-28T15:59:35.333Z,92.89
2022-10-28T16:05:15.308Z,93.60
2022-10-28T16:11:00.397Z,94.03
2022-10-28T16:16:43.332Z,94.01
2022-10-28T16:22:27.345Z,94.26
2022-10-28T16:28:07.382Z,94.41
2022-10-28T16:33:50.445Z,94.56
2022-10-28T16:39:30.553Z,94.84
2022-10-28T16:45:10.373Z,94.70
2022-10-28T16:50:50.405Z,94.56
2022-10-28T16:56:31.485Z,94.27
2022-10-28T17:02:11.508Z,94.20
2022-10-28T17:07:51.595Z,94.26
2022-10-28T17:13:31.430Z,94.04
2022-10-28T17:19:11.395Z,94.13
2022-10-28T17:24:51.402Z,94.19
2022-10-28T17:30:32.566Z,94.12
2022-10-28T17:36:15.386Z,94.09
2022-10-28T17:41:55.566Z,94.46
2022-10-28T17:47:35.417Z,94.62
2022-10-28T17:53:15.458Z,94.86
2022-10-28T17:58:55.404Z,94.95
2022-10-28T18:04:35.405Z,95.34
2022-10-28T18:10:15.469Z,96.24
2022-10-28T18:15:55.426Z,97.94
2022-10-28T18:21:42.441Z,98.43
2022-10-28T18:27:22.517Z,97.98
2022-10-28T18:33:02.453Z,97.63
2022-10-28T18:38:43.485Z,97.26
2022-10-28T18:44:26.564Z,97.25
2022-10-28T18:50:06.467Z,97.67
2022-10-28T18:55:46.455Z,97.63
2022-10-28T19:01:28.621Z,98.01
2022-10-28T19:07:08.473Z,98.63
2022-10-28T19:12:52.772Z,98.97
2022-10-28T19:18:32.601Z,98.98
2022-10-28T19:24:12.542Z,99.19
2022-10-28T19:29:53.489Z,99.12
2022-10-28T19:35:33.504Z,98.59
2022-10-28T19:41:18.493Z,98.28
2022-10-28T19:46:58.456Z,98.18
2022-10-28T19:52:38.572Z,98.17
2022-10-28T19:58:18.517Z,97.91
2022-10-28T20:03:58.499Z,97.82
2022-10-28T20:09:39.497Z,97.83
2022-10-28T20:15:21.531Z,97.76
2022-10-28T20:21:01.632Z,98.26
2022-10-28T20:26:43.521Z,98.60
2022-10-28T20:32:23.703Z,98.35
2022-10-28T20:43:50.501Z,99.16
2022-10-28T20:49:30.501Z,99.26
2022-10-28T20:55:10.604Z,99.76
2022-10-28T21:00:50.616Z,100.00
2022-10-28T21:06:31.538Z,100.00
2022-10-28T21:12:11.571Z,100.00
2022-10-28T21:17:51.557Z,100.00
2022-10-28T21:23:38.577Z,100.00
2022-10-28T21:29:18.542Z,100.00
2022-10-28T21:34:58.546Z,100.00
2022-10-28T21:40:38.524Z,100.00
2022-10-28T21:46:19.582Z,100.00
2022-10-28T21:51:59.877Z,100.00
2022-10-28T21:57:44.598Z,100.00
2022-10-28T22:03:25.602Z,100.00
2022-10-28T22:09:07.615Z,100.00
2022-10-28T22:14:49.571Z,100.00
2022-10-28T22:20:29.575Z,100.00
2022-10-28T22:26:13.612Z,100.00
2022-10-28T22:31:54.577Z,100.00
2022-10-28T22:37:34.619Z,100.00
2022-10-28T22:43:14.609Z,100.00
2022-10-28T22:48:54.647Z,100.00
2022-10-28T22:54:34.622Z,100.00
2022-10-28T23:00:14.693Z,100.00
2022-10-28T23:05:54.666Z,100.00
2022-10-28T23:11:35.641Z,100.00
2022-10-28T23:17:15.641Z,100.00
2022-10-28T23:22:55.662Z,100.00
2022-10-28T23:28:35.727Z,100.00
2022-10-28T23:34:15.647Z,100.00
2022-10-28T23:39:55.646Z,100.00
2022-10-28T23:45:35.637Z,100.00
2022-10-28T23:51:15.603Z,100.00
2022-10-28T23:56:55.698Z,100.00
